sensor_id;sensor_type;location;lat;lon;timestamp;pressure;altitude;pressure_sealevel;temperature;humidity
47873;BME280;73966;47.438;18.912;2023-12-22T00:00:56;97600.37;;;7.84;69.94
47873;BME280;73966;47.438;18.912;2023-12-22T00:03:26;97590.09;;;7.81;70.46
47873;BME280;73966;47.438;18.912;2023-12-22T00:05:57;97592.16;;;7.87;70.21
47873;BME280;73966;47.438;18.912;2023-12-22T00:08:26;97578.75;;;8.08;69.36
47873;BME280;73966;47.438;18.912;2023-12-22T00:10:58;97600.78;;;7.80;70.59
47873;BME280;73966;47.438;18.912;2023-12-22T00:13:28;97599.00;;;7.80;70.57
47873;BME280;73966;47.438;18.912;2023-12-22T00:15:59;97616.84;;;7.49;71.84
47873;BME280;73966;47.438;18.912;2023-12-22T00:18:29;97620.03;;;7.53;71.51
47873;BME280;73966;47.438;18.912;2023-12-22T00:21:00;97610.75;;;7.39;72.01
47873;BME280;73966;47.438;18.912;2023-12-22T00:23:30;97612.25;;;7.51;71.59
47873;BME280;73966;47.438;18.912;2023-12-22T00:26:04;97619.84;;;7.64;71.51
47873;BME280;73966;47.438;18.912;2023-12-22T00:28:34;97634.94;;;7.72;70.83
47873;BME280;73966;47.438;18.912;2023-12-22T00:31:03;97641.62;;;7.66;71.15
47873;BME280;73966;47.438;18.912;2023-12-22T00:33:32;97647.91;;;7.46;71.59
47873;BME280;73966;47.438;18.912;2023-12-22T00:36:03;97661.81;;;7.38;72.42
47873;BME280;73966;47.438;18.912;2023-12-22T00:38:32;97649.31;;;7.40;73.10
47873;BME280;73966;47.438;18.912;2023-12-22T00:41:02;97655.56;;;7.49;73.40
47873;BME280;73966;47.438;18.912;2023-12-22T00:43:31;97636.84;;;7.32;74.32
47873;BME280;73966;47.438;18.912;2023-12-22T00:46:03;97634.88;;;7.54;73.51
47873;BME280;73966;47.438;18.912;2023-12-22T00:48:33;97650.44;;;7.28;74.57
47873;BME280;73966;47.438;18.912;2023-12-22T00:51:05;97645.59;;;7.23;74.76
47873;BME280;73966;47.438;18.912;2023-12-22T00:53:34;97651.84;;;7.22;74.96
47873;BME280;73966;47.438;18.912;2023-12-22T00:56:08;97663.19;;;7.23;74.96
47873;BME280;73966;47.438;18.912;2023-12-22T00:58:37;97685.66;;;7.36;74.95
47873;BME280;73966;47.438;18.912;2023-12-22T01:01:07;97693.00;;;7.33;74.64
47873;BME280;73966;47.438;18.912;2023-12-22T01:03:36;97702.84;;;7.31;75.09
47873;BME280;73966;47.438;18.912;2023-12-22T01:06:07;97653.87;;;7.28;74.94
47873;BME280;73966;47.438;18.912;2023-12-22T01:08:36;97628.09;;;7.42;74.40
47873;BME280;73966;47.438;18.912;2023-12-22T01:11:06;97618.94;;;7.36;74.53
47873;BME280;73966;47.438;18.912;2023-12-22T01:13:35;97611.66;;;7.10;75.13
47873;BME280;73966;47.438;18.912;2023-12-22T01:16:08;97619.94;;;7.35;74.40
47873;BME280;73966;47.438;18.912;2023-12-22T01:18:36;97647.88;;;7.55;73.30
47873;BME280;73966;47.438;18.912;2023-12-22T01:21:09;97653.31;;;7.44;73.74
47873;BME280;73966;47.438;18.912;2023-12-22T01:23:38;97652.44;;;7.73;72.74
47873;BME280;73966;47.438;18.912;2023-12-22T01:26:10;97645.47;;;7.72;72.31
47873;BME280;73966;47.438;18.912;2023-12-22T01:28:39;97648.97;;;7.62;72.67
47873;BME280;73966;47.438;18.912;2023-12-22T01:31:12;97649.88;;;7.91;71.53
47873;BME280;73966;47.438;18.912;2023-12-22T01:33:41;97650.75;;;7.72;71.86
47873;BME280;73966;47.438;18.912;2023-12-22T01:36:12;97650.94;;;7.60;72.12
47873;BME280;73966;47.438;18.912;2023-12-22T01:38:42;97657.72;;;7.73;72.06
47873;BME280;73966;47.438;18.912;2023-12-22T01:41:14;97647.22;;;7.91;71.03
47873;BME280;73966;47.438;18.912;2023-12-22T01:43:43;97651.53;;;7.92;70.60
47873;BME280;73966;47.438;18.912;2023-12-22T01:46:12;97660.03;;;7.76;71.11
47873;BME280;73966;47.438;18.912;2023-12-22T01:48:45;97651.88;;;7.69;70.98
47873;BME280;73966;47.438;18.912;2023-12-22T01:51:15;97657.50;;;7.27;71.68
47873;BME280;73966;47.438;18.912;2023-12-22T01:53:46;97673.19;;;7.29;71.85
47873;BME280;73966;47.438;18.912;2023-12-22T01:56:15;97672.47;;;7.27;71.52
47873;BME280;73966;47.438;18.912;2023-12-22T02:01:33;97655.00;;;7.45;71.36
47873;BME280;73966;47.438;18.912;2023-12-22T02:04:03;97634.94;;;7.25;71.79
47873;BME280;73966;47.438;18.912;2023-12-22T02:06:35;97610.75;;;7.39;71.37
47873;BME280;73966;47.438;18.912;2023-12-22T02:09:05;97603.81;;;7.48;70.86
47873;BME280;73966;47.438;18.912;2023-12-22T02:11:34;97606.88;;;7.43;71.11
47873;BME280;73966;47.438;18.912;2023-12-22T02:14:03;97583.75;;;7.37;71.32
47873;BME280;73966;47.438;18.912;2023-12-22T02:16:39;97579.19;;;7.29;71.33
47873;BME280;73966;47.438;18.912;2023-12-22T02:19:21;97593.09;;;7.59;70.65
47873;BME280;73966;47.438;18.912;2023-12-22T02:22:02;97592.87;;;7.43;70.94
47873;BME280;73966;47.438;18.912;2023-12-22T02:24:37;97557.69;;;7.34;70.43
47873;BME280;73966;47.438;18.912;2023-12-22T02:27:15;97604.03;;;7.64;69.86
47873;BME280;73966;47.438;18.912;2023-12-22T02:29:49;97591.28;;;7.69;69.59
47873;BME280;73966;47.438;18.912;2023-12-22T02:32:22;97554.00;;;7.54;69.98
47873;BME280;73966;47.438;18.912;2023-12-22T02:34:53;97546.69;;;7.76;69.34
47873;BME280;73966;47.438;18.912;2023-12-22T02:37:24;97568.56;;;7.86;68.73
47873;BME280;73966;47.438;18.912;2023-12-22T02:39:56;97577.28;;;7.59;69.64
47873;BME280;73966;47.438;18.912;2023-12-22T02:42:27;97599.72;;;7.73;68.96
47873;BME280;73966;47.438;18.912;2023-12-22T02:45:00;97618.59;;;7.68;69.39
47873;BME280;73966;47.438;18.912;2023-12-22T02:47:30;97637.28;;;7.75;69.06
47873;BME280;73966;47.438;18.912;2023-12-22T02:50:00;97630.94;;;7.68;69.39
47873;BME280;73966;47.438;18.912;2023-12-22T02:52:30;97635.84;;;7.53;69.85
47873;BME280;73966;47.438;18.912;2023-12-22T02:55:02;97628.72;;;7.63;69.27
47873;BME280;73966;47.438;18.912;2023-12-22T02:57:31;97617.06;;;7.66;69.14
47873;BME280;73966;47.438;18.912;2023-12-22T03:00:00;97594.72;;;7.23;70.17
47873;BME280;73966;47.438;18.912;2023-12-22T03:02:48;97607.03;;;7.42;69.67
47873;BME280;73966;47.438;18.912;2023-12-22T03:05:17;97596.28;;;7.06;70.76
47873;BME280;73966;47.438;18.912;2023-12-22T03:07:52;97594.19;;;7.09;70.62
47873;BME280;73966;47.438;18.912;2023-12-22T03:10:23;97600.53;;;7.17;70.20
47873;BME280;73966;47.438;18.912;2023-12-22T03:12:52;97611.25;;;6.96;71.18
47873;BME280;73966;47.438;18.912;2023-12-22T03:15:21;97615.69;;;6.95;71.13
47873;BME280;73966;47.438;18.912;2023-12-22T03:17:53;97633.84;;;6.79;71.02
47873;BME280;73966;47.438;18.912;2023-12-22T03:20:22;97630.19;;;6.51;72.05
47873;BME280;73966;47.438;18.912;2023-12-22T03:22:52;97625.38;;;6.75;70.77
47873;BME280;73966;47.438;18.912;2023-12-22T03:25:23;97641.88;;;6.87;70.17
47873;BME280;73966;47.438;18.912;2023-12-22T03:27:54;97654.59;;;7.11;69.11
47873;BME280;73966;47.438;18.912;2023-12-22T03:30:24;97672.34;;;6.80;69.99
47873;BME280;73966;47.438;18.912;2023-12-22T03:32:53;97677.19;;;6.84;69.92
47873;BME280;73966;47.438;18.912;2023-12-22T03:35:22;97675.69;;;6.82;70.08
47873;BME280;73966;47.438;18.912;2023-12-22T03:37:52;97672.47;;;6.88;68.76
47873;BME280;73966;47.438;18.912;2023-12-22T03:40:21;97665.00;;;6.83;67.34
47873;BME280;73966;47.438;18.912;2023-12-22T03:42:53;97656.84;;;6.86;66.76
47873;BME280;73966;47.438;18.912;2023-12-22T03:45:22;97654.75;;;6.71;65.24
47873;BME280;73966;47.438;18.912;2023-12-22T03:47:53;97651.28;;;6.80;64.97
47873;BME280;73966;47.438;18.912;2023-12-22T03:50:22;97646.84;;;6.90;64.25
47873;BME280;73966;47.438;18.912;2023-12-22T03:52:52;97656.81;;;6.96;63.27
47873;BME280;73966;47.438;18.912;2023-12-22T03:55:21;97661.97;;;6.98;62.23
47873;BME280;73966;47.438;18.912;2023-12-22T03:57:55;97686.22;;;7.01;62.75
47873;BME280;73966;47.438;18.912;2023-12-22T04:00:24;97674.84;;;6.91;62.83
47873;BME280;73966;47.438;18.912;2023-12-22T04:02:53;97685.91;;;6.85;62.77
47873;BME280;73966;47.438;18.912;2023-12-22T04:05:24;97679.81;;;7.04;61.65
47873;BME280;73966;47.438;18.912;2023-12-22T04:07:54;97677.06;;;6.86;61.88
47873;BME280;73966;47.438;18.912;2023-12-22T04:10:23;97690.75;;;6.80;61.23
47873;BME280;73966;47.438;18.912;2023-12-22T04:12:52;97692.03;;;6.85;61.07
47873;BME280;73966;47.438;18.912;2023-12-22T04:15:23;97685.91;;;6.85;61.35
47873;BME280;73966;47.438;18.912;2023-12-22T04:17:56;97701.72;;;7.04;60.79
47873;BME280;73966;47.438;18.912;2023-12-22T04:20:25;97690.91;;;6.88;61.26
47873;BME280;73966;47.438;18.912;2023-12-22T04:22:54;97690.22;;;6.96;60.82
47873;BME280;73966;47.438;18.912;2023-12-22T04:25:23;97717.81;;;7.01;60.90
47873;BME280;73966;47.438;18.912;2023-12-22T04:27:54;97722.09;;;7.02;60.70
47873;BME280;73966;47.438;18.912;2023-12-22T04:30:24;97715.31;;;7.00;61.08
47873;BME280;73966;47.438;18.912;2023-12-22T04:32:58;97722.53;;;7.07;60.96
47873;BME280;73966;47.438;18.912;2023-12-22T04:35:27;97722.78;;;7.04;60.93
47873;BME280;73966;47.438;18.912;2023-12-22T04:37:56;97718.50;;;7.03;60.58
47873;BME280;73966;47.438;18.912;2023-12-22T04:40:26;97718.59;;;6.73;60.89
47873;BME280;73966;47.438;18.912;2023-12-22T04:42:56;97722.22;;;6.91;60.31
47873;BME280;73966;47.438;18.912;2023-12-22T04:45:27;97720.00;;;6.86;60.60
47873;BME280;73966;47.438;18.912;2023-12-22T04:48:00;97729.59;;;7.07;60.21
47873;BME280;73966;47.438;18.912;2023-12-22T04:50:29;97726.38;;;6.84;60.01
47873;BME280;73966;47.438;18.912;2023-12-22T04:52:58;97723.47;;;6.77;60.78
47873;BME280;73966;47.438;18.912;2023-12-22T04:55:28;97737.16;;;6.71;60.82
47873;BME280;73966;47.438;18.912;2023-12-22T04:57:58;97729.56;;;6.78;60.67
47873;BME280;73966;47.438;18.912;2023-12-22T05:00:29;97729.72;;;6.86;60.58
47873;BME280;73966;47.438;18.912;2023-12-22T05:03:02;97730.81;;;6.83;60.25
47873;BME280;73966;47.438;18.912;2023-12-22T05:05:32;97741.22;;;6.95;60.26
47873;BME280;73966;47.438;18.912;2023-12-22T05:08:01;97739.03;;;7.09;59.84
47873;BME280;73966;47.438;18.912;2023-12-22T05:10:33;97751.34;;;6.99;59.80
47873;BME280;73966;47.438;18.912;2023-12-22T05:13:09;97746.91;;;7.19;59.38
47873;BME280;73966;47.438;18.912;2023-12-22T05:15:39;97758.28;;;7.20;59.42
47873;BME280;73966;47.438;18.912;2023-12-22T05:18:11;97767.03;;;7.30;59.13
47873;BME280;73966;47.438;18.912;2023-12-22T05:20:42;97782.56;;;7.13;59.48
47873;BME280;73966;47.438;18.912;2023-12-22T05:23:12;97785.00;;;6.96;59.64
47873;BME280;73966;47.438;18.912;2023-12-22T05:25:41;97783.19;;;6.96;59.34
47873;BME280;73966;47.438;18.912;2023-12-22T05:28:10;97787.00;;;6.63;60.20
47873;BME280;73966;47.438;18.912;2023-12-22T05:30:47;97784.53;;;6.71;59.28
47873;BME280;73966;47.438;18.912;2023-12-22T05:33:16;97786.84;;;6.64;59.97
47873;BME280;73966;47.438;18.912;2023-12-22T05:35:45;97796.81;;;6.30;59.71
47873;BME280;73966;47.438;18.912;2023-12-22T05:38:15;97793.78;;;6.65;59.26
47873;BME280;73966;47.438;18.912;2023-12-22T05:40:44;97806.50;;;6.60;59.38
47873;BME280;73966;47.438;18.912;2023-12-22T05:43:14;97796.03;;;6.39;59.38
47873;BME280;73966;47.438;18.912;2023-12-22T05:45:44;97803.28;;;6.47;59.20
47873;BME280;73966;47.438;18.912;2023-12-22T05:48:14;97804.75;;;6.40;58.77
47873;BME280;73966;47.438;18.912;2023-12-22T05:50:44;97789.63;;;6.32;58.61
47873;BME280;73966;47.438;18.912;2023-12-22T05:53:13;97803.81;;;6.20;58.51
47873;BME280;73966;47.438;18.912;2023-12-22T05:55:42;97805.50;;;6.00;58.79
47873;BME280;73966;47.438;18.912;2023-12-22T05:58:12;97817.53;;;6.24;58.19
47873;BME280;73966;47.438;18.912;2023-12-22T06:00:43;97827.09;;;6.04;58.06
47873;BME280;73966;47.438;18.912;2023-12-22T06:03:14;97829.56;;;5.84;58.40
47873;BME280;73966;47.438;18.912;2023-12-22T06:05:44;97822.13;;;5.89;57.26
47873;BME280;73966;47.438;18.912;2023-12-22T06:08:13;97820.66;;;5.76;57.94
47873;BME280;73966;47.438;18.912;2023-12-22T06:10:45;97824.53;;;5.93;56.99
47873;BME280;73966;47.438;18.912;2023-12-22T06:13:14;97832.62;;;6.01;57.06
47873;BME280;73966;47.438;18.912;2023-12-22T06:15:43;97846.00;;;5.98;57.07
47873;BME280;73966;47.438;18.912;2023-12-22T06:18:12;97853.66;;;6.01;57.12
47873;BME280;73966;47.438;18.912;2023-12-22T06:20:46;97862.38;;;6.01;56.81
47873;BME280;73966;47.438;18.912;2023-12-22T06:23:15;97876.47;;;6.00;56.68
47873;BME280;73966;47.438;18.912;2023-12-22T06:25:45;97879.06;;;6.11;56.44
47873;BME280;73966;47.438;18.912;2023-12-22T06:28:16;97886.56;;;5.84;56.54
47873;BME280;73966;47.438;18.912;2023-12-22T06:30:46;97890.84;;;5.96;56.47
47873;BME280;73966;47.438;18.912;2023-12-22T06:33:16;97900.47;;;6.07;56.30
47873;BME280;73966;47.438;18.912;2023-12-22T06:35:47;97896.44;;;6.03;56.05
47873;BME280;73966;47.438;18.912;2023-12-22T06:38:21;97882.47;;;5.91;55.55
47873;BME280;73966;47.438;18.912;2023-12-22T06:40:51;97892.78;;;5.83;55.96
47873;BME280;73966;47.438;18.912;2023-12-22T06:43:20;97889.69;;;5.78;55.86
47873;BME280;73966;47.438;18.912;2023-12-22T06:45:49;97885.00;;;5.93;55.70
47873;BME280;73966;47.438;18.912;2023-12-22T06:48:22;97889.37;;;5.71;55.35
47873;BME280;73966;47.438;18.912;2023-12-22T06:50:54;97881.81;;;6.10;55.10
47873;BME280;73966;47.438;18.912;2023-12-22T06:53:24;97873.06;;;6.09;54.48
47873;BME280;73966;47.438;18.912;2023-12-22T06:55:53;97883.09;;;6.36;53.77
47873;BME280;73966;47.438;18.912;2023-12-22T06:58:24;97882.66;;;6.10;53.55
47873;BME280;73966;47.438;18.912;2023-12-22T07:00:54;97899.06;;;6.24;53.72
47873;BME280;73966;47.438;18.912;2023-12-22T07:03:24;97888.94;;;5.98;53.93
47873;BME280;73966;47.438;18.912;2023-12-22T07:05:54;97899.56;;;6.18;53.15
47873;BME280;73966;47.438;18.912;2023-12-22T07:08:23;97899.94;;;6.13;52.74
47873;BME280;73966;47.438;18.912;2023-12-22T07:10:56;97899.84;;;6.14;52.87
47873;BME280;73966;47.438;18.912;2023-12-22T07:13:26;97904.81;;;5.97;53.18
47873;BME280;73966;47.438;18.912;2023-12-22T07:15:56;97905.59;;;6.08;53.38
47873;BME280;73966;47.438;18.912;2023-12-22T07:18:25;97907.25;;;6.09;53.24
47873;BME280;73966;47.438;18.912;2023-12-22T07:21:00;97909.72;;;6.22;52.65
47873;BME280;73966;47.438;18.912;2023-12-22T07:23:29;97908.72;;;6.65;58.30
47873;BME280;73966;47.438;18.912;2023-12-22T07:25:58;97906.66;;;6.89;52.10
47873;BME280;73966;47.438;18.912;2023-12-22T07:28:27;97898.19;;;6.86;51.60
47873;BME280;73966;47.438;18.912;2023-12-22T07:30:57;97893.03;;;6.84;52.12
47873;BME280;73966;47.438;18.912;2023-12-22T07:33:27;97894.06;;;6.93;52.03
47873;BME280;73966;47.438;18.912;2023-12-22T07:35:57;97882.72;;;7.02;51.75
47873;BME280;73966;47.438;18.912;2023-12-22T07:38:28;97884.47;;;6.92;52.15
47873;BME280;73966;47.438;18.912;2023-12-22T07:40:59;97892.13;;;6.95;52.44
47873;BME280;73966;47.438;18.912;2023-12-22T07:43:29;97893.50;;;6.89;52.69
47873;BME280;73966;47.438;18.912;2023-12-22T07:45:59;97900.84;;;6.96;53.39
47873;BME280;73966;47.438;18.912;2023-12-22T07:48:31;97901.12;;;6.62;54.01
47873;BME280;73966;47.438;18.912;2023-12-22T07:51:04;97901.06;;;7.13;53.29
47873;BME280;73966;47.438;18.912;2023-12-22T07:53:38;97896.66;;;7.24;52.97
47873;BME280;73966;47.438;18.912;2023-12-22T07:56:08;97904.94;;;7.79;52.24
47873;BME280;73966;47.438;18.912;2023-12-22T07:58:39;97897.31;;;8.14;51.42
47873;BME280;73966;47.438;18.912;2023-12-22T08:01:12;97896.41;;;8.72;49.95
47873;BME280;73966;47.438;18.912;2023-12-22T08:03:43;97913.53;;;8.29;50.57
47873;BME280;73966;47.438;18.912;2023-12-22T08:06:12;97908.31;;;8.86;49.69
47873;BME280;73966;47.438;18.912;2023-12-22T08:08:43;97908.78;;;9.64;47.53
47873;BME280;73966;47.438;18.912;2023-12-22T08:11:13;97903.50;;;10.00;46.45
47873;BME280;73966;47.438;18.912;2023-12-22T08:13:42;97904.03;;;10.39;45.26
47873;BME280;73966;47.438;18.912;2023-12-22T08:16:11;97896.09;;;11.17;43.79
47873;BME280;73966;47.438;18.912;2023-12-22T08:18:40;97886.31;;;11.68;42.05
47873;BME280;73966;47.438;18.912;2023-12-22T08:21:09;97888.72;;;12.04;41.63
47873;BME280;73966;47.438;18.912;2023-12-22T08:23:53;97896.63;;;11.88;41.03
47873;BME280;73966;47.438;18.912;2023-12-22T08:26:23;97890.22;;;12.31;40.08
47873;BME280;73966;47.438;18.912;2023-12-22T08:28:52;97887.06;;;12.60;39.94
47873;BME280;73966;47.438;18.912;2023-12-22T08:31:22;97891.03;;;12.56;40.28
47873;BME280;73966;47.438;18.912;2023-12-22T08:33:51;97890.37;;;12.54;40.20
47873;BME280;73966;47.438;18.912;2023-12-22T08:36:20;97878.03;;;12.77;39.71
47873;BME280;73966;47.438;18.912;2023-12-22T08:38:49;97911.31;;;12.16;40.44
47873;BME280;73966;47.438;18.912;2023-12-22T08:41:21;97906.00;;;12.24;40.81
47873;BME280;73966;47.438;18.912;2023-12-22T08:43:50;97902.59;;;11.81;41.77
47873;BME280;73966;47.438;18.912;2023-12-22T08:46:19;97918.38;;;11.99;40.80
47873;BME280;73966;47.438;18.912;2023-12-22T08:48:49;97902.31;;;12.09;41.90
47873;BME280;73966;47.438;18.912;2023-12-22T08:51:18;97918.59;;;12.71;40.42
47873;BME280;73966;47.438;18.912;2023-12-22T08:53:48;97924.06;;;12.37;40.93
47873;BME280;73966;47.438;18.912;2023-12-22T08:56:18;97927.37;;;12.72;40.24
47873;BME280;73966;47.438;18.912;2023-12-22T08:58:52;97931.53;;;12.91;39.99
47873;BME280;73966;47.438;18.912;2023-12-22T09:01:23;97938.69;;;12.49;40.49
47873;BME280;73966;47.438;18.912;2023-12-22T09:03:53;97944.00;;;12.41;39.82
47873;BME280;73966;47.438;18.912;2023-12-22T09:06:23;97947.97;;;12.29;40.42
47873;BME280;73966;47.438;18.912;2023-12-22T09:08:53;97931.72;;;12.65;39.83
47873;BME280;73966;47.438;18.912;2023-12-22T09:11:22;97935.56;;;11.79;40.44
47873;BME280;73966;47.438;18.912;2023-12-22T09:13:54;97937.84;;;11.57;41.52
47873;BME280;73966;47.438;18.912;2023-12-22T09:16:27;97932.97;;;11.87;41.14
47873;BME280;73966;47.438;18.912;2023-12-22T09:18:57;97935.31;;;11.14;42.18
47873;BME280;73966;47.438;18.912;2023-12-22T09:21:26;97937.66;;;11.59;41.43
47873;BME280;73966;47.438;18.912;2023-12-22T09:23:56;97939.44;;;11.85;41.05
47873;BME280;73966;47.438;18.912;2023-12-22T09:26:28;97940.66;;;12.31;40.48
47873;BME280;73966;47.438;18.912;2023-12-22T09:28:58;97919.28;;;12.41;39.84
47873;BME280;73966;47.438;18.912;2023-12-22T09:31:28;97919.75;;;12.69;39.60
47873;BME280;73966;47.438;18.912;2023-12-22T09:33:58;97914.63;;;12.67;39.22
47873;BME280;73966;47.438;18.912;2023-12-22T09:36:27;97907.38;;;13.56;37.89
47873;BME280;73966;47.438;18.912;2023-12-22T09:38:57;97924.06;;;14.04;37.08
47873;BME280;73966;47.438;18.912;2023-12-22T09:41:27;97917.34;;;14.39;36.46
47873;BME280;73966;47.438;18.912;2023-12-22T09:43:59;97921.00;;;13.92;37.13
47873;BME280;73966;47.438;18.912;2023-12-22T09:46:30;97935.34;;;13.52;36.68
47873;BME280;73966;47.438;18.912;2023-12-22T09:49:01;97931.94;;;13.27;38.09
47873;BME280;73966;47.438;18.912;2023-12-22T09:51:32;97948.47;;;12.49;39.27
47873;BME280;73966;47.438;18.912;2023-12-22T09:54:03;97939.00;;;12.38;39.54
47873;BME280;73966;47.438;18.912;2023-12-22T09:56:33;97944.50;;;12.69;39.26
47873;BME280;73966;47.438;18.912;2023-12-22T09:59:12;97933.34;;;12.74;39.84
47873;BME280;73966;47.438;18.912;2023-12-22T10:01:43;97935.19;;;12.49;40.11
47873;BME280;73966;47.438;18.912;2023-12-22T10:04:15;97933.25;;;11.33;42.08
47873;BME280;73966;47.438;18.912;2023-12-22T10:06:46;97939.72;;;11.81;41.84
47873;BME280;73966;47.438;18.912;2023-12-22T10:09:20;97933.34;;;11.58;42.18
47873;BME280;73966;47.438;18.912;2023-12-22T10:11:52;97923.69;;;11.91;41.80
47873;BME280;73966;47.438;18.912;2023-12-22T10:14:23;97924.72;;;12.31;41.37
47873;BME280;73966;47.438;18.912;2023-12-22T10:16:59;97922.97;;;11.73;42.11
47873;BME280;73966;47.438;18.912;2023-12-22T10:19:29;97930.19;;;12.13;41.89
47873;BME280;73966;47.438;18.912;2023-12-22T10:21:58;97938.16;;;12.05;42.17
47873;BME280;73966;47.438;18.912;2023-12-22T10:24:37;97928.41;;;11.71;42.78
47873;BME280;73966;47.438;18.912;2023-12-22T10:27:07;97927.19;;;10.37;45.07
47873;BME280;73966;47.438;18.912;2023-12-22T10:29:38;97925.97;;;10.49;45.75
47873;BME280;73966;47.438;18.912;2023-12-22T10:32:08;97928.28;;;10.70;44.32
47873;BME280;73966;47.438;18.912;2023-12-22T10:34:37;97910.56;;;10.71;44.47
47873;BME280;73966;47.438;18.912;2023-12-22T10:37:06;97896.16;;;10.99;43.79
47873;BME280;73966;47.438;18.912;2023-12-22T10:39:36;97875.59;;;10.93;44.95
47873;BME280;73966;47.438;18.912;2023-12-22T10:42:06;97870.19;;;10.77;44.94
47873;BME280;73966;47.438;18.912;2023-12-22T10:44:41;97870.00;;;10.70;43.86
47873;BME280;73966;47.438;18.912;2023-12-22T10:47:10;97873.38;;;10.54;44.49
47873;BME280;73966;47.438;18.912;2023-12-22T10:49:40;97894.16;;;9.88;45.92
47873;BME280;73966;47.438;18.912;2023-12-22T10:52:15;97876.06;;;10.37;44.88
47873;BME280;73966;47.438;18.912;2023-12-22T10:54:49;97875.78;;;10.66;44.91
47873;BME280;73966;47.438;18.912;2023-12-22T10:57:18;97886.88;;;10.25;44.00
47873;BME280;73966;47.438;18.912;2023-12-22T10:59:51;97880.31;;;10.29;44.98
47873;BME280;73966;47.438;18.912;2023-12-22T11:02:27;97884.00;;;10.37;44.91
47873;BME280;73966;47.438;18.912;2023-12-22T11:04:59;97888.06;;;10.75;43.98
47873;BME280;73966;47.438;18.912;2023-12-22T11:07:33;97895.44;;;10.89;43.76
47873;BME280;73966;47.438;18.912;2023-12-22T11:10:04;97890.47;;;10.86;43.22
47873;BME280;73966;47.438;18.912;2023-12-22T11:12:36;97907.66;;;11.58;42.85
47873;BME280;73966;47.438;18.912;2023-12-22T11:15:07;97904.66;;;11.45;42.44
47873;BME280;73966;47.438;18.912;2023-12-22T11:17:44;97893.56;;;11.16;42.49
47873;BME280;73966;47.438;18.912;2023-12-22T11:20:24;97898.56;;;11.69;42.26
47873;BME280;73966;47.438;18.912;2023-12-22T11:22:54;97906.66;;;11.60;42.00
47873;BME280;73966;47.438;18.912;2023-12-22T11:25:31;97898.69;;;11.51;42.39
47873;BME280;73966;47.438;18.912;2023-12-22T11:28:02;97902.38;;;11.24;42.86
47873;BME280;73966;47.438;18.912;2023-12-22T11:30:35;97894.75;;;10.61;43.86
47873;BME280;73966;47.438;18.912;2023-12-22T11:33:06;97913.34;;;10.25;44.56
47873;BME280;73966;47.438;18.912;2023-12-22T11:35:36;97885.97;;;10.34;44.90
47873;BME280;73966;47.438;18.912;2023-12-22T11:38:11;97918.84;;;9.96;44.91
47873;BME280;73966;47.438;18.912;2023-12-22T11:40:40;97916.81;;;10.08;44.87
47873;BME280;73966;47.438;18.912;2023-12-22T11:43:10;97906.75;;;10.12;44.43
47873;BME280;73966;47.438;18.912;2023-12-22T11:45:42;97911.75;;;10.15;43.97
47873;BME280;73966;47.438;18.912;2023-12-22T11:48:16;97914.44;;;10.58;43.79
47873;BME280;73966;47.438;18.912;2023-12-22T11:50:45;97894.91;;;10.59;43.87
47873;BME280;73966;47.438;18.912;2023-12-22T11:53:22;97893.22;;;10.50;43.71
47873;BME280;73966;47.438;18.912;2023-12-22T11:55:59;97914.94;;;10.18;44.11
47873;BME280;73966;47.438;18.912;2023-12-22T11:58:36;97907.81;;;9.83;45.05
47873;BME280;73966;47.438;18.912;2023-12-22T12:01:09;97918.63;;;10.07;45.28
47873;BME280;73966;47.438;18.912;2023-12-22T12:03:41;97918.47;;;9.91;45.81
47873;BME280;73966;47.438;18.912;2023-12-22T12:06:15;97919.00;;;9.77;45.54
47873;BME280;73966;47.438;18.912;2023-12-22T12:08:45;97926.09;;;9.31;46.70
47873;BME280;73966;47.438;18.912;2023-12-22T12:11:16;97921.53;;;9.23;46.92
47873;BME280;73966;47.438;18.912;2023-12-22T12:13:48;97938.94;;;9.16;47.15
47873;BME280;73966;47.438;18.912;2023-12-22T12:16:25;97933.69;;;9.34;47.76
47873;BME280;73966;47.438;18.912;2023-12-22T12:18:54;97936.19;;;9.08;47.83
47873;BME280;73966;47.438;18.912;2023-12-22T12:21:31;97934.94;;;9.12;48.04
47873;BME280;73966;47.438;18.912;2023-12-22T12:24:00;97943.84;;;9.11;46.60
47873;BME280;73966;47.438;18.912;2023-12-22T12:26:33;97930.03;;;8.80;47.64
47873;BME280;73966;47.438;18.912;2023-12-22T12:29:03;97929.16;;;8.89;47.99
47873;BME280;73966;47.438;18.912;2023-12-22T12:31:37;97937.66;;;8.83;48.12
47873;BME280;73966;47.438;18.912;2023-12-22T12:34:07;97935.56;;;8.86;48.67
47873;BME280;73966;47.438;18.912;2023-12-22T12:36:40;97932.56;;;8.72;49.17
47873;BME280;73966;47.438;18.912;2023-12-22T12:39:14;97947.44;;;8.53;48.66
47873;BME280;73966;47.438;18.912;2023-12-22T12:41:46;97935.06;;;8.64;49.98
47873;BME280;73966;47.438;18.912;2023-12-22T12:44:20;97914.84;;;8.82;49.84
47873;BME280;73966;47.438;18.912;2023-12-22T12:46:58;97919.81;;;8.95;49.29
47873;BME280;73966;47.438;18.912;2023-12-22T12:49:32;97934.44;;;8.89;49.44
47873;BME280;73966;47.438;18.912;2023-12-22T12:52:01;97922.84;;;8.53;50.40
47873;BME280;73966;47.438;18.912;2023-12-22T12:54:32;97923.81;;;8.23;53.53
47873;BME280;73966;47.438;18.912;2023-12-22T12:57:01;97925.34;;;8.16;54.30
47873;BME280;73966;47.438;18.912;2023-12-22T12:59:30;97921.75;;;8.17;54.14
47873;BME280;73966;47.438;18.912;2023-12-22T13:02:01;97927.03;;;8.17;53.44
47873;BME280;73966;47.438;18.912;2023-12-22T13:04:36;97918.16;;;7.88;55.08
47873;BME280;73966;47.438;18.912;2023-12-22T13:07:06;97918.84;;;7.81;54.70
47873;BME280;73966;47.438;18.912;2023-12-22T13:09:38;97924.50;;;7.96;54.88
47873;BME280;73966;47.438;18.912;2023-12-22T13:12:10;97925.22;;;7.88;52.44
47873;BME280;73966;47.438;18.912;2023-12-22T13:14:39;97932.00;;;7.81;52.38
47873;BME280;73966;47.438;18.912;2023-12-22T13:17:10;97935.22;;;7.94;53.18
47873;BME280;73966;47.438;18.912;2023-12-22T13:19:40;97931.88;;;8.21;52.68